Time;durP1;ratioP1;P1;durP2;ratioP2;P2;SDS_P1;SDS_P2;PMS_P1;PMS_P2;Temp;Humidity;BMP_temperature;BMP_pressure;BME280_temperature;BME280_humidity;BME280_pressure;Samples;Min_cycle;Max_cycle;Signal;HPM_P1;HPM_P2
2023/04/16 00:01:53;;;;;;;18.45;8.07;;;;;;;;;;5033886;28;20265;-66
2023/04/16 00:04:18;;;;;;;21.33;7.97;;;;;;;;;;5028170;28;20199;-66
2023/04/16 00:06:43;;;;;;;23.80;9.25;;;;;;;;;;5032560;28;20219;-66
2023/04/16 00:09:09;;;;;;;20.48;9.18;;;;;;;;;;5035183;28;20224;-66
2023/04/16 00:11:34;;;;;;;18.00;8.45;;;;;;;;;;5043908;28;20300;-66
2023/04/16 00:13:59;;;;;;;20.45;8.38;;;;;;;;;;5052552;28;20245;-66
2023/04/16 00:16:25;;;;;;;20.02;7.97;;;;;;;;;;5035906;28;20211;-66
2023/04/16 00:18:50;;;;;;;20.30;8.30;;;;;;;;;;5033035;28;20242;-66
2023/04/16 00:21:15;;;;;;;19.00;8.43;;;;;;;;;;5033321;28;20385;-66
2023/04/16 00:23:41;;;;;;;18.17;8.82;;;;;;;;;;5033487;28;20212;-66
2023/04/16 00:26:07;;;;;;;19.52;8.63;;;;;;;;;;5032601;28;20211;-66
2023/04/16 00:28:32;;;;;;;20.75;8.90;;;;;;;;;;5033545;28;20223;-66
2023/04/16 00:30:58;;;;;;;19.83;8.57;;;;;;;;;;5032988;28;20214;-66
2023/04/16 00:33:23;;;;;;;21.70;8.63;;;;;;;;;;5032573;28;20705;-66
2023/04/16 00:35:49;;;;;;;20.77;8.88;;;;;;;;;;5033467;28;20208;-66
2023/04/16 00:38:14;;;;;;;18.10;8.88;;;;;;;;;;5032200;28;20224;-66
2023/04/16 00:40:40;;;;;;;22.23;9.20;;;;;;;;;;5033376;28;20225;-66
2023/04/16 00:43:05;;;;;;;21.77;8.82;;;;;;;;;;5032975;28;20223;-66
2023/04/16 00:45:30;;;;;;;16.70;8.50;;;;;;;;;;5032595;28;20211;-66
2023/04/16 00:47:55;;;;;;;20.08;9.35;;;;;;;;;;5032789;28;20278;-67
2023/04/16 00:50:21;;;;;;;24.67;9.95;;;;;;;;;;5032664;28;20554;-66
2023/04/16 00:52:46;;;;;;;27.70;10.07;;;;;;;;;;5026992;28;20302;-67
2023/04/16 00:55:12;;;;;;;23.92;10.32;;;;;;;;;;4991906;28;20209;-66
2023/04/16 00:57:37;;;;;;;21.08;10.20;;;;;;;;;;4992601;28;20227;-66
2023/04/16 01:00:03;;;;;;;25.83;10.40;;;;;;;;;;4992473;28;20210;-66
2023/04/16 01:02:28;;;;;;;21.02;9.07;;;;;;;;;;4993597;28;20213;-66
2023/04/16 01:04:53;;;;;;;20.85;10.52;;;;;;;;;;4993032;28;20228;-66
2023/04/16 01:07:19;;;;;;;27.80;10.27;;;;;;;;;;4991137;28;20217;-65
2023/04/16 01:09:44;;;;;;;22.58;9.48;;;;;;;;;;4980206;28;20226;-65
2023/04/16 01:12:09;;;;;;;24.85;10.88;;;;;;;;;;4972090;28;20245;-66
2023/04/16 01:14:35;;;;;;;21.17;10.20;;;;;;;;;;4970266;28;20215;-65
2023/04/16 01:17:01;;;;;;;23.00;10.55;;;;;;;;;;4960705;28;20217;-64
2023/04/16 01:19:27;;;;;;;19.45;10.23;;;;;;;;;;4969128;28;20224;-65
2023/04/16 01:21:53;;;;;;;22.48;10.88;;;;;;;;;;4955558;28;20594;-66
2023/04/16 01:24:18;;;;;;;23.48;11.23;;;;;;;;;;4960149;28;20237;-65
2023/04/16 01:26:43;;;;;;;23.42;11.20;;;;;;;;;;4964340;28;20238;-66
2023/04/16 01:29:09;;;;;;;23.98;10.82;;;;;;;;;;4962689;28;20280;-65
2023/04/16 01:31:34;;;;;;;22.27;11.13;;;;;;;;;;4964327;28;20705;-65
2023/04/16 01:33:59;;;;;;;27.13;12.38;;;;;;;;;;4963607;28;20240;-65
2023/04/16 01:36:25;;;;;;;27.63;12.35;;;;;;;;;;4962789;28;20206;-65
2023/04/16 01:38:51;;;;;;;23.02;11.40;;;;;;;;;;4961141;28;20712;-65
2023/04/16 01:41:16;;;;;;;26.85;11.35;;;;;;;;;;4955554;28;20225;-65
2023/04/16 01:43:41;;;;;;;26.00;11.68;;;;;;;;;;4955153;28;20244;-65
2023/04/16 01:46:10;;;;;;;24.55;12.82;;;;;;;;;;4961027;28;20213;-65
2023/04/16 01:48:35;;;;;;;24.45;12.18;;;;;;;;;;4969469;28;20228;-65
2023/04/16 01:51:00;;;;;;;24.95;12.52;;;;;;;;;;4985499;28;20221;-64
2023/04/16 01:53:26;;;;;;;28.33;12.63;;;;;;;;;;4988384;28;20568;-65
2023/04/16 01:55:51;;;;;;;27.73;13.07;;;;;;;;;;4990512;28;20271;-66
2023/04/16 01:58:16;;;;;;;22.77;12.20;;;;;;;;;;4993319;28;20336;-65
2023/04/16 02:00:42;;;;;;;28.98;14.20;;;;;;;;;;4994202;28;20699;-65
2023/04/16 02:03:07;;;;;;;25.95;13.77;;;;;;;;;;4984814;28;20304;-65
2023/04/16 02:05:32;;;;;;;28.83;13.63;;;;;;;;;;4982693;28;20287;-65
2023/04/16 02:07:57;;;;;;;35.05;14.73;;;;;;;;;;4983792;28;20229;-65
2023/04/16 02:10:23;;;;;;;33.55;14.48;;;;;;;;;;4992891;28;21540;-65
2023/04/16 02:12:48;;;;;;;29.33;15.05;;;;;;;;;;5007823;28;20255;-65
2023/04/16 02:15:14;;;;;;;29.10;13.65;;;;;;;;;;5013303;28;20204;-65
2023/04/16 02:17:39;;;;;;;29.27;14.15;;;;;;;;;;5011783;28;20299;-65
2023/04/16 02:20:07;;;;;;;27.58;14.55;;;;;;;;;;5011710;28;20296;-65
2023/04/16 02:22:32;;;;;;;27.25;14.45;;;;;;;;;;5012201;28;20239;-65
2023/04/16 02:24:57;;;;;;;27.08;13.45;;;;;;;;;;5029707;28;20208;-65
2023/04/16 02:27:22;;;;;;;29.08;14.43;;;;;;;;;;5031599;28;20697;-65
2023/04/16 02:29:48;;;;;;;37.38;16.42;;;;;;;;;;5031851;28;20308;-65
2023/04/16 02:32:13;;;;;;;28.65;15.25;;;;;;;;;;5030746;28;20266;-65
2023/04/16 02:34:39;;;;;;;29.70;14.85;;;;;;;;;;5014396;28;20696;-66
2023/04/16 02:37:04;;;;;;;32.35;15.45;;;;;;;;;;4984106;28;20267;-65
2023/04/16 02:39:29;;;;;;;31.92;16.00;;;;;;;;;;4986212;28;20263;-66
2023/04/16 02:41:55;;;;;;;26.63;14.52;;;;;;;;;;4986303;28;20680;-65
2023/04/16 02:44:20;;;;;;;32.53;16.48;;;;;;;;;;4986134;28;20225;-66
2023/04/16 02:46:45;;;;;;;28.88;14.90;;;;;;;;;;4984524;28;20216;-66
2023/04/16 02:49:10;;;;;;;29.88;15.15;;;;;;;;;;4978325;28;20225;-65
2023/04/16 02:51:36;;;;;;;34.90;16.80;;;;;;;;;;4995058;28;20574;-66
2023/04/16 02:54:01;;;;;;;29.55;16.00;;;;;;;;;;5003165;28;20259;-65
2023/04/16 02:56:27;;;;;;;33.10;16.40;;;;;;;;;;5005523;28;20212;-65
2023/04/16 02:58:52;;;;;;;27.73;15.18;;;;;;;;;;5005350;28;20753;-66
2023/04/16 03:01:17;;;;;;;33.03;16.40;;;;;;;;;;5004968;28;20294;-65
2023/04/16 03:03:43;;;;;;;29.52;16.25;;;;;;;;;;5005822;28;20259;-65
2023/04/16 03:06:08;;;;;;;32.08;16.77;;;;;;;;;;5004073;28;20227;-65
2023/04/16 03:08:33;;;;;;;30.67;15.40;;;;;;;;;;5024415;28;20314;-65
2023/04/16 03:10:58;;;;;;;38.85;17.10;;;;;;;;;;5018898;28;20250;-65
2023/04/16 03:13:24;;;;;;;32.17;16.83;;;;;;;;;;5015616;28;20290;-66
2023/04/16 03:15:49;;;;;;;40.50;18.30;;;;;;;;;;5016367;28;20219;-65
2023/04/16 03:18:15;;;;;;;30.88;16.48;;;;;;;;;;5022140;28;20208;-65
2023/04/16 03:20:40;;;;;;;39.42;19.02;;;;;;;;;;5023898;28;20226;-65
2023/04/16 03:23:05;;;;;;;32.03;17.83;;;;;;;;;;5021717;28;20212;-65
2023/04/16 03:25:30;;;;;;;29.83;16.80;;;;;;;;;;5005409;28;20669;-65
2023/04/16 03:27:56;;;;;;;33.50;16.65;;;;;;;;;;5004264;28;20216;-65
2023/04/16 03:30:21;;;;;;;32.97;17.55;;;;;;;;;;5005101;28;20295;-65
2023/04/16 03:32:46;;;;;;;35.38;18.38;;;;;;;;;;5001532;28;21411;-65
2023/04/16 03:35:11;;;;;;;31.52;17.50;;;;;;;;;;4996299;28;20651;-65
2023/04/16 03:37:37;;;;;;;34.85;17.83;;;;;;;;;;4996062;28;20212;-66
2023/04/16 03:40:04;;;;;;;35.08;18.23;;;;;;;;;;5000114;28;20215;-65
2023/04/16 03:42:29;;;;;;;37.03;18.55;;;;;;;;;;5004278;28;20676;-65
2023/04/16 03:44:56;;;;;;;33.88;18.83;;;;;;;;;;5004896;28;20227;-65
2023/04/16 03:47:21;;;;;;;33.63;17.63;;;;;;;;;;5004514;28;20672;-65
2023/04/16 03:49:46;;;;;;;35.25;18.75;;;;;;;;;;5003947;28;20232;-65
2023/04/16 03:52:12;;;;;;;36.55;18.73;;;;;;;;;;5003867;28;20212;-65
2023/04/16 03:54:37;;;;;;;33.08;18.67;;;;;;;;;;5003329;28;20236;-66
2023/04/16 03:57:02;;;;;;;35.85;18.33;;;;;;;;;;5015215;28;20220;-65
2023/04/16 03:59:27;;;;;;;30.23;17.05;;;;;;;;;;5015511;28;20212;-65
2023/04/16 04:01:53;;;;;;;30.23;18.30;;;;;;;;;;5016649;28;20223;-66
2023/04/16 04:04:18;;;;;;;37.25;19.63;;;;;;;;;;5022696;28;20223;-66
2023/04/16 04:06:44;;;;;;;31.50;17.73;;;;;;;;;;5023478;28;20220;-66
2023/04/16 04:09:09;;;;;;;35.95;18.60;;;;;;;;;;5022560;28;20272;-65
2023/04/16 04:11:34;;;;;;;32.38;17.27;;;;;;;;;;5023867;28;20211;-66
2023/04/16 04:14:00;;;;;;;31.30;17.95;;;;;;;;;;5023828;28;20598;-66
2023/04/16 04:16:25;;;;;;;33.38;18.45;;;;;;;;;;5002343;28;20216;-66
2023/04/16 04:18:50;;;;;;;30.38;17.85;;;;;;;;;;4998103;28;20212;-65
2023/04/16 04:21:16;;;;;;;41.80;20.85;;;;;;;;;;4995217;28;20358;-65
2023/04/16 04:23:42;;;;;;;36.20;19.27;;;;;;;;;;4986939;28;20688;-65
2023/04/16 04:26:07;;;;;;;33.55;19.92;;;;;;;;;;4982503;28;20585;-65
2023/04/16 04:28:33;;;;;;;39.08;19.90;;;;;;;;;;4984534;28;20217;-65
2023/04/16 04:30:58;;;;;;;38.20;20.35;;;;;;;;;;4984082;28;20267;-65
2023/04/16 04:33:24;;;;;;;35.40;19.02;;;;;;;;;;4983709;28;20245;-65
2023/04/16 04:35:50;;;;;;;36.60;18.88;;;;;;;;;;4984522;28;20244;-65
2023/04/16 04:38:18;;;;;;;37.60;19.70;;;;;;;;;;4997314;28;20248;-65
2023/04/16 04:40:44;;;;;;;36.00;19.83;;;;;;;;;;4980714;28;20950;-65
2023/04/16 04:43:09;;;;;;;38.90;20.70;;;;;;;;;;4976099;28;20518;-65
2023/04/16 04:45:34;;;;;;;39.65;21.20;;;;;;;;;;4975761;28;20225;-65
2023/04/16 04:47:59;;;;;;;35.63;20.00;;;;;;;;;;4979802;28;20213;-66
2023/04/16 04:50:25;;;;;;;36.05;20.42;;;;;;;;;;4983563;28;20251;-65
2023/04/16 04:52:50;;;;;;;34.53;19.95;;;;;;;;;;4997916;28;20737;-66
2023/04/16 04:55:15;;;;;;;35.20;19.88;;;;;;;;;;4983535;28;20681;-65
2023/04/16 04:57:41;;;;;;;33.25;19.23;;;;;;;;;;4984412;28;20227;-65
2023/04/16 05:00:07;;;;;;;40.22;21.15;;;;;;;;;;4982051;28;20221;-64
2023/04/16 05:02:32;;;;;;;39.47;20.50;;;;;;;;;;4983030;28;20209;-65
2023/04/16 05:04:58;;;;;;;36.72;19.58;;;;;;;;;;4976449;28;20812;-65
2023/04/16 05:07:23;;;;;;;35.05;19.73;;;;;;;;;;4974585;28;20217;-65
2023/04/16 05:09:48;;;;;;;37.55;19.70;;;;;;;;;;4976786;28;20265;-66
2023/04/16 05:12:14;;;;;;;34.88;18.75;;;;;;;;;;4983278;28;20306;-65
2023/04/16 05:14:39;;;;;;;32.83;19.10;;;;;;;;;;4985430;28;20206;-65
2023/04/16 05:17:04;;;;;;;28.38;17.42;;;;;;;;;;5002393;28;20216;-65
2023/04/16 05:19:30;;;;;;;32.90;18.23;;;;;;;;;;5002200;28;20251;-65
2023/04/16 05:21:55;;;;;;;36.78;19.10;;;;;;;;;;5002920;28;20216;-66
2023/04/16 05:24:21;;;;;;;33.40;19.38;;;;;;;;;;4989196;28;20497;-66
2023/04/16 05:26:46;;;;;;;34.90;19.70;;;;;;;;;;4994539;28;20212;-67
2023/04/16 05:29:11;;;;;;;31.88;17.73;;;;;;;;;;4982613;28;20738;-65
2023/04/16 05:31:37;;;;;;;32.03;19.25;;;;;;;;;;4975080;28;20279;-65
2023/04/16 05:34:02;;;;;;;32.80;18.98;;;;;;;;;;4980650;28;20653;-65
2023/04/16 05:36:27;;;;;;;33.60;18.80;;;;;;;;;;4983176;28;20324;-65
2023/04/16 05:38:52;;;;;;;32.55;17.98;;;;;;;;;;4983534;28;20220;-65
2023/04/16 05:41:18;;;;;;;30.63;18.88;;;;;;;;;;4982244;28;20256;-65
2023/04/16 05:43:43;;;;;;;31.23;17.95;;;;;;;;;;4983407;28;20225;-65
2023/04/16 05:46:08;;;;;;;32.20;18.90;;;;;;;;;;4982703;28;20217;-68
2023/04/16 05:48:34;;;;;;;33.05;19.23;;;;;;;;;;4979080;28;20233;-66
2023/04/16 05:51:01;;;;;;;38.15;20.42;;;;;;;;;;4975171;28;20558;-68
2023/04/16 05:53:26;;;;;;;32.47;18.83;;;;;;;;;;4986838;28;20835;-66
2023/04/16 05:55:51;;;;;;;34.20;22.30;;;;;;;;;;4977203;28;20420;-65
2023/04/16 05:58:16;;;;;;;33.90;20.35;;;;;;;;;;4983096;28;20220;-66
2023/04/16 06:00:42;;;;;;;36.05;23.27;;;;;;;;;;4982347;28;20870;-67
2023/04/16 06:03:07;;;;;;;40.42;22.65;;;;;;;;;;4982224;28;20784;-66
2023/04/16 06:05:32;;;;;;;32.83;19.55;;;;;;;;;;4983144;28;20216;-66
2023/04/16 06:07:57;;;;;;;35.33;20.65;;;;;;;;;;4983204;28;20213;-66
2023/04/16 06:10:23;;;;;;;31.55;20.00;;;;;;;;;;4980654;28;20217;-65
2023/04/16 06:12:48;;;;;;;31.92;19.77;;;;;;;;;;4984447;28;20231;-66
2023/04/16 06:15:13;;;;;;;38.03;22.23;;;;;;;;;;4987301;28;20274;-65
2023/04/16 06:17:39;;;;;;;37.35;20.85;;;;;;;;;;4998657;28;20256;-66
2023/04/16 06:20:04;;;;;;;41.65;23.58;;;;;;;;;;5005277;28;20598;-65
2023/04/16 06:22:30;;;;;;;39.08;22.45;;;;;;;;;;5006561;28;20223;-65
2023/04/16 06:24:55;;;;;;;40.90;22.70;;;;;;;;;;4995206;28;20216;-66
2023/04/16 06:27:20;;;;;;;37.45;21.38;;;;;;;;;;4987239;28;20653;-66
2023/04/16 06:29:46;;;;;;;40.72;22.38;;;;;;;;;;4986008;28;20233;-66
2023/04/16 06:32:11;;;;;;;35.80;22.15;;;;;;;;;;4986622;28;20653;-66
2023/04/16 06:34:36;;;;;;;43.45;23.38;;;;;;;;;;4980870;28;20220;-66
2023/04/16 06:37:02;;;;;;;44.03;23.17;;;;;;;;;;4977117;28;20213;-66
2023/04/16 06:39:27;;;;;;;40.38;21.45;;;;;;;;;;4978634;28;20225;-66
2023/04/16 06:41:52;;;;;;;43.97;23.33;;;;;;;;;;4984289;28;20276;-66
2023/04/16 06:44:18;;;;;;;45.38;24.42;;;;;;;;;;4989271;28;20217;-65
2023/04/16 06:46:43;;;;;;;37.72;21.52;;;;;;;;;;5010397;28;20571;-65
2023/04/16 06:49:08;;;;;;;42.60;24.15;;;;;;;;;;5014113;28;20229;-65
2023/04/16 06:51:34;;;;;;;44.20;23.77;;;;;;;;;;5014280;28;20216;-64
2023/04/16 06:53:59;;;;;;;42.90;26.50;;;;;;;;;;5012837;28;20517;-65
2023/04/16 06:56:24;;;;;;;39.35;23.70;;;;;;;;;;5019964;28;20574;-66
2023/04/16 06:58:50;;;;;;;34.95;20.15;;;;;;;;;;5044040;28;20291;-64
2023/04/16 07:01:15;;;;;;;35.88;21.17;;;;;;;;;;5035877;28;20208;-65
2023/04/16 07:03:41;;;;;;;39.45;22.48;;;;;;;;;;5034122;28;20253;-65
2023/04/16 07:06:06;;;;;;;34.67;20.88;;;;;;;;;;5034068;28;20220;-65
2023/04/16 07:08:31;;;;;;;39.28;22.02;;;;;;;;;;5035208;28;20216;-65
2023/04/16 07:10:56;;;;;;;37.22;22.15;;;;;;;;;;5034997;28;20705;-66
2023/04/16 07:13:22;;;;;;;39.35;23.58;;;;;;;;;;5033757;28;20223;-65
2023/04/16 07:15:47;;;;;;;34.85;21.58;;;;;;;;;;5035525;28;20299;-66
2023/04/16 07:18:12;;;;;;;40.67;23.58;;;;;;;;;;5034513;28;20220;-65
2023/04/16 07:20:38;;;;;;;37.97;22.60;;;;;;;;;;5034477;28;20686;-66
2023/04/16 07:23:03;;;;;;;39.55;23.30;;;;;;;;;;5032651;28;20212;-66
2023/04/16 07:25:28;;;;;;;39.97;22.90;;;;;;;;;;5015119;28;20216;-66
2023/04/16 07:27:53;;;;;;;40.80;23.40;;;;;;;;;;5013901;28;20735;-66
2023/04/16 07:30:19;;;;;;;36.78;21.92;;;;;;;;;;5014616;28;20220;-65
2023/04/16 07:32:44;;;;;;;33.53;21.80;;;;;;;;;;5014911;28;20208;-66
2023/04/16 07:35:10;;;;;;;43.30;23.48;;;;;;;;;;5013825;28;20212;-66
2023/04/16 07:37:35;;;;;;;39.05;23.65;;;;;;;;;;5014818;28;20213;-66
2023/04/16 07:40:00;;;;;;;42.38;22.67;;;;;;;;;;5014247;28;20236;-65
2023/04/16 07:42:26;;;;;;;40.80;22.73;;;;;;;;;;5025894;28;20212;-67
2023/04/16 07:44:52;;;;;;;41.30;23.77;;;;;;;;;;5020767;28;20263;-66
2023/04/16 07:47:17;;;;;;;41.17;23.45;;;;;;;;;;5015583;28;20689;-66
2023/04/16 07:49:42;;;;;;;39.25;21.58;;;;;;;;;;5017899;28;20701;-66
2023/04/16 07:52:08;;;;;;;42.70;23.70;;;;;;;;;;5000699;28;20223;-66
2023/04/16 07:54:33;;;;;;;40.38;22.85;;;;;;;;;;5028071;28;20234;-66
2023/04/16 07:56:58;;;;;;;38.90;22.27;;;;;;;;;;5034074;28;20215;-66
2023/04/16 07:59:23;;;;;;;41.47;22.95;;;;;;;;;;5033610;28;20299;-65
2023/04/16 08:01:51;;;;;;;37.55;22.40;;;;;;;;;;5033529;28;20211;-66
2023/04/16 08:04:21;;;;;;;35.13;20.63;;;;;;;;;;5033484;28;20253;-66
2023/04/16 08:06:46;;;;;;;35.53;21.77;;;;;;;;;;5034140;28;20223;-66
2023/04/16 08:09:12;;;;;;;41.13;23.90;;;;;;;;;;5032630;28;20223;-65
2023/04/16 08:11:37;;;;;;;45.03;24.63;;;;;;;;;;5034104;28;20242;-66
2023/04/16 08:14:02;;;;;;;42.17;22.73;;;;;;;;;;5033243;28;20215;-65
2023/04/16 08:16:27;;;;;;;41.60;23.85;;;;;;;;;;5033089;28;20212;-65
2023/04/16 08:18:53;;;;;;;41.13;23.45;;;;;;;;;;5033813;28;20293;-66
2023/04/16 08:21:18;;;;;;;43.78;24.35;;;;;;;;;;5033334;28;20212;-65
2023/04/16 08:23:43;;;;;;;43.90;22.98;;;;;;;;;;5041203;28;20219;-66
2023/04/16 08:26:09;;;;;;;40.65;24.48;;;;;;;;;;5053215;28;20203;-65
2023/04/16 08:28:34;;;;;;;44.92;23.42;;;;;;;;;;5053209;28;20234;-66
2023/04/16 08:30:59;;;;;;;40.08;24.25;;;;;;;;;;5052752;28;20576;-67
2023/04/16 08:33:25;;;;;;;39.90;23.25;;;;;;;;;;5052764;28;20215;-66
2023/04/16 08:35:50;;;;;;;46.50;24.77;;;;;;;;;;5034541;28;20210;-66
2023/04/16 08:38:15;;;;;;;43.00;23.65;;;;;;;;;;5052296;28;20277;-66
2023/04/16 08:40:40;;;;;;;44.13;23.83;;;;;;;;;;5053393;28;20808;-66
2023/04/16 08:43:09;;;;;;;41.63;24.05;;;;;;;;;;5034781;28;20222;-66
2023/04/16 08:45:34;;;;;;;44.17;24.05;;;;;;;;;;5052314;28;20214;-66
2023/04/16 08:47:59;;;;;;;46.38;24.85;;;;;;;;;;5025176;28;20212;-66
2023/04/16 08:50:25;;;;;;;44.15;25.05;;;;;;;;;;5031817;28;20211;-66
2023/04/16 08:52:52;;;;;;;43.60;24.02;;;;;;;;;;5033050;28;20231;-66
2023/04/16 08:55:21;;;;;;;38.45;23.42;;;;;;;;;;5032577;28;20636;-66
2023/04/16 08:57:48;;;;;;;46.35;25.80;;;;;;;;;;5028816;28;20350;-66
2023/04/16 09:00:13;;;;;;;47.78;25.92;;;;;;;;;;5031007;28;20581;-66
2023/04/16 09:02:38;;;;;;;40.42;24.40;;;;;;;;;;5033125;28;20211;-66
2023/04/16 09:05:05;;;;;;;49.78;26.35;;;;;;;;;;5031848;28;20313;-66
2023/04/16 09:07:30;;;;;;;44.03;25.10;;;;;;;;;;5031735;28;20349;-65
2023/04/16 09:09:56;;;;;;;46.70;25.48;;;;;;;;;;5027200;28;20695;-66
2023/04/16 09:12:22;;;;;;;49.85;26.73;;;;;;;;;;5029421;28;20216;-66
2023/04/16 09:14:49;;;;;;;51.55;27.65;;;;;;;;;;5032015;28;20303;-66
2023/04/16 09:17:14;;;;;;;61.08;28.25;;;;;;;;;;5031530;28;20220;-65
2023/04/16 09:19:40;;;;;;;49.25;26.45;;;;;;;;;;5032000;28;20226;-66
2023/04/16 09:22:05;;;;;;;49.58;26.73;;;;;;;;;;5032296;28;20236;-65
2023/04/16 09:24:30;;;;;;;53.17;26.35;;;;;;;;;;5032623;28;20214;-66
2023/04/16 09:26:56;;;;;;;48.65;26.42;;;;;;;;;;5030549;28;20212;-66
2023/04/16 09:29:37;;;;;;;46.65;26.27;;;;;;;;;;5031921;28;20224;-66
2023/04/16 09:32:03;;;;;;;48.78;25.15;;;;;;;;;;5024801;28;20215;-65
2023/04/16 09:34:28;;;;;;;37.63;21.88;;;;;;;;;;5005367;28;20213;-66
2023/04/16 09:36:53;;;;;;;37.33;22.60;;;;;;;;;;5014627;28;20845;-66
2023/04/16 09:39:19;;;;;;;41.83;23.30;;;;;;;;;;4999897;28;20719;-67
2023/04/16 09:41:46;;;;;;;40.65;23.75;;;;;;;;;;5016339;28;20221;-66
2023/04/16 09:44:11;;;;;;;36.97;22.70;;;;;;;;;;5006582;28;20295;-66
2023/04/16 09:46:39;;;;;;;40.92;23.85;;;;;;;;;;5005921;28;20311;-66
2023/04/16 09:49:12;;;;;;;36.80;22.27;;;;;;;;;;5007217;28;20220;-66
2023/04/16 09:51:37;;;;;;;37.72;23.80;;;;;;;;;;5007290;28;20228;-66
2023/04/16 09:54:04;;;;;;;39.22;23.58;;;;;;;;;;5014408;28;20279;-66
2023/04/16 09:56:29;;;;;;;38.03;23.80;;;;;;;;;;5000975;28;20352;-66
2023/04/16 09:58:57;;;;;;;38.50;22.45;;;;;;;;;;4982510;28;20216;-66
2023/04/16 10:01:22;;;;;;;37.03;22.38;;;;;;;;;;5017038;28;20223;-66
2023/04/16 10:03:48;;;;;;;38.38;22.92;;;;;;;;;;5022702;28;20224;-66
2023/04/16 10:06:15;;;;;;;33.50;21.70;;;;;;;;;;5025334;28;20702;-66
2023/04/16 10:08:47;;;;;;;42.78;22.27;;;;;;;;;;5006468;28;21363;-66
2023/04/16 10:11:12;;;;;;;38.65;21.83;;;;;;;;;;5024866;28;20216;-66
2023/04/16 10:13:37;;;;;;;39.55;21.30;;;;;;;;;;5026038;28;20748;-65
2023/04/16 10:16:03;;;;;;;35.15;20.48;;;;;;;;;;5024162;28;20227;-65
2023/04/16 10:18:28;;;;;;;35.17;21.73;;;;;;;;;;5021511;28;20214;-66
2023/04/16 10:20:53;;;;;;;33.00;21.02;;;;;;;;;;5017446;28;20215;-66
2023/04/16 10:23:20;;;;;;;35.22;20.02;;;;;;;;;;5012282;28;20201;-66
2023/04/16 10:25:46;;;;;;;35.33;20.73;;;;;;;;;;5000869;28;20282;-66
2023/04/16 10:28:11;;;;;;;30.48;19.98;;;;;;;;;;5006404;28;20223;-66
2023/04/16 10:30:37;;;;;;;34.88;20.25;;;;;;;;;;5004615;28;20212;-66
2023/04/16 10:33:03;;;;;;;35.83;20.42;;;;;;;;;;5014287;28;20852;-65
2023/04/16 10:35:28;;;;;;;32.58;19.73;;;;;;;;;;5030229;28;20262;-66
2023/04/16 10:37:55;;;;;;;35.47;20.98;;;;;;;;;;5031117;28;20281;-67
2023/04/16 10:40:22;;;;;;;29.52;18.83;;;;;;;;;;5031435;28;20238;-66
2023/04/16 10:43:00;;;;;;;30.02;19.52;;;;;;;;;;5012655;28;20602;-66
2023/04/16 10:45:31;;;;;;;29.48;19.45;;;;;;;;;;4992186;28;20323;-67
2023/04/16 10:47:57;;;;;;;34.67;19.25;;;;;;;;;;5009674;28;20218;-66
2023/04/16 10:50:22;;;;;;;31.30;19.85;;;;;;;;;;5030676;28;20216;-66
2023/04/16 10:52:48;;;;;;;36.47;20.10;;;;;;;;;;5026219;28;20240;-66
2023/04/16 10:55:15;;;;;;;33.92;20.05;;;;;;;;;;4993650;28;20212;-66
2023/04/16 10:57:40;;;;;;;29.92;19.02;;;;;;;;;;4992196;28;20213;-66
2023/04/16 11:00:20;;;;;;;27.27;18.20;;;;;;;;;;4995643;28;20232;-66
2023/04/16 11:02:45;;;;;;;29.98;17.77;;;;;;;;;;4984171;28;20211;-67
2023/04/16 11:05:11;;;;;;;28.67;18.45;;;;;;;;;;4995199;28;20642;-66
2023/04/16 11:07:38;;;;;;;29.48;17.77;;;;;;;;;;4969088;28;20270;-66
2023/04/16 11:10:04;;;;;;;33.67;18.80;;;;;;;;;;5015016;28;20597;-65
2023/04/16 11:12:30;;;;;;;24.48;16.10;;;;;;;;;;5014454;28;20239;-66
2023/04/16 11:15:03;;;;;;;25.38;16.05;;;;;;;;;;5015030;28;20231;-66
2023/04/16 11:17:31;;;;;;;27.48;16.80;;;;;;;;;;4998261;28;20632;-63
2023/04/16 11:19:56;;;;;;;29.42;17.45;;;;;;;;;;5012873;28;20209;-64
2023/04/16 11:22:21;;;;;;;30.98;18.45;;;;;;;;;;5014296;28;20648;-63
2023/04/16 11:24:46;;;;;;;29.95;16.80;;;;;;;;;;4996642;28;20831;-63
2023/04/16 11:27:12;;;;;;;25.42;16.35;;;;;;;;;;4989065;28;20213;-62
2023/04/16 11:29:38;;;;;;;24.92;15.35;;;;;;;;;;4996644;28;20231;-62
2023/04/16 11:32:03;;;;;;;27.05;16.10;;;;;;;;;;5007143;28;20225;-64
2023/04/16 11:34:28;;;;;;;30.25;16.38;;;;;;;;;;4992468;28;20435;-63
2023/04/16 11:36:54;;;;;;;26.73;17.05;;;;;;;;;;4981306;28;20671;-64
2023/04/16 11:39:19;;;;;;;26.77;17.35;;;;;;;;;;4980804;28;20648;-64
2023/04/16 11:41:45;;;;;;;27.10;15.98;;;;;;;;;;4992759;28;20231;-64
2023/04/16 11:44:17;;;;;;;27.92;16.27;;;;;;;;;;4989171;28;20244;-63
2023/04/16 11:46:42;;;;;;;23.92;15.50;;;;;;;;;;4988680;28;20578;-64
2023/04/16 11:49:08;;;;;;;28.17;16.33;;;;;;;;;;4988577;28;20735;-64
2023/04/16 11:51:38;;;;;;;35.42;16.13;;;;;;;;;;4971915;28;20213;-68
2023/04/16 11:54:03;;;;;;;28.38;17.05;;;;;;;;;;4987755;28;20237;-68
2023/04/16 11:56:29;;;;;;;27.17;17.05;;;;;;;;;;4969262;28;20576;-67
2023/04/16 11:59:05;;;;;;;25.23;16.20;;;;;;;;;;4960800;28;20312;-67
2023/04/16 12:01:31;;;;;;;24.85;17.05;;;;;;;;;;4969294;28;20233;-67
2023/04/16 12:03:59;;;;;;;25.35;15.98;;;;;;;;;;4962143;28;20296;-67
2023/04/16 12:06:25;;;;;;;26.95;15.80;;;;;;;;;;4969470;28;20209;-67
2023/04/16 12:08:50;;;;;;;25.65;14.95;;;;;;;;;;4968790;28;20229;-67
2023/04/16 12:11:15;;;;;;;22.17;14.18;;;;;;;;;;4969117;28;20720;-67
2023/04/16 12:13:40;;;;;;;25.30;15.35;;;;;;;;;;4969307;28;20214;-67
2023/04/16 12:16:15;;;;;;;24.30;14.65;;;;;;;;;;4968303;28;20214;-66
2023/04/16 12:18:43;;;;;;;25.10;14.80;;;;;;;;;;4969024;28;20217;-67
2023/04/16 12:21:08;;;;;;;27.80;15.10;;;;;;;;;;4959415;28;20248;-67
2023/04/16 12:23:34;;;;;;;23.58;14.70;;;;;;;;;;4960976;28;20214;-67
2023/04/16 12:26:09;;;;;;;27.55;15.77;;;;;;;;;;4962626;28;20299;-67
2023/04/16 12:28:35;;;;;;;26.80;14.68;;;;;;;;;;4986310;28;20224;-70
2023/04/16 12:31:01;;;;;;;26.05;14.88;;;;;;;;;;4987717;28;20220;-64
2023/04/16 12:33:26;;;;;;;26.27;14.98;;;;;;;;;;4982326;28;20210;-68
2023/04/16 12:35:51;;;;;;;28.80;14.80;;;;;;;;;;4968267;28;20685;-69
2023/04/16 12:38:17;;;;;;;25.02;14.07;;;;;;;;;;4969005;28;20214;-68
2023/04/16 12:40:42;;;;;;;21.40;13.90;;;;;;;;;;4970197;28;20268;-66
2023/04/16 12:43:08;;;;;;;22.65;12.88;;;;;;;;;;4979601;28;20287;-65
2023/04/16 12:45:33;;;;;;;28.05;14.48;;;;;;;;;;4979502;28;20239;-66
2023/04/16 12:47:58;;;;;;;25.65;13.18;;;;;;;;;;4971056;28;20245;-66
2023/04/16 12:50:24;;;;;;;25.23;13.25;;;;;;;;;;4964580;28;20225;-65
2023/04/16 12:52:49;;;;;;;22.15;14.00;;;;;;;;;;4979664;28;20248;-65
2023/04/16 12:55:14;;;;;;;21.02;12.73;;;;;;;;;;4988895;28;20613;-65
2023/04/16 12:57:40;;;;;;;23.60;12.93;;;;;;;;;;4987628;28;20217;-65
2023/04/16 13:00:05;;;;;;;23.23;12.90;;;;;;;;;;4987496;28;20231;-65
2023/04/16 13:02:31;;;;;;;25.52;13.15;;;;;;;;;;4987627;28;20213;-65
2023/04/16 13:04:56;;;;;;;24.52;12.85;;;;;;;;;;4984064;28;20255;-65
2023/04/16 13:07:22;;;;;;;24.75;13.18;;;;;;;;;;4978891;28;20566;-65
2023/04/16 13:09:48;;;;;;;26.58;13.95;;;;;;;;;;4980327;28;20260;-66
2023/04/16 13:12:13;;;;;;;28.70;14.02;;;;;;;;;;4975453;28;20983;-65
2023/04/16 13:14:39;;;;;;;22.27;13.30;;;;;;;;;;4987935;28;20254;-65
2023/04/16 13:17:04;;;;;;;25.70;13.52;;;;;;;;;;4987088;28;20239;-64
2023/04/16 13:19:29;;;;;;;29.80;14.18;;;;;;;;;;4986526;28;20208;-65
2023/04/16 13:21:55;;;;;;;21.98;12.45;;;;;;;;;;4987437;28;20228;-65
2023/04/16 13:24:20;;;;;;;23.88;13.80;;;;;;;;;;4986133;28;20325;-65
2023/04/16 13:26:45;;;;;;;24.92;13.70;;;;;;;;;;4986479;28;20244;-65
2023/04/16 13:29:11;;;;;;;26.70;13.82;;;;;;;;;;4978639;28;20243;-65
2023/04/16 13:31:36;;;;;;;29.13;14.40;;;;;;;;;;4979781;28;20224;-65
2023/04/16 13:34:03;;;;;;;27.60;14.43;;;;;;;;;;4979586;28;20225;-65
2023/04/16 13:36:29;;;;;;;29.20;14.38;;;;;;;;;;4986803;28;20217;-65
2023/04/16 13:38:55;;;;;;;25.02;13.43;;;;;;;;;;4986693;28;20606;-65
2023/04/16 13:41:20;;;;;;;23.15;14.52;;;;;;;;;;4992797;28;20220;-65
2023/04/16 13:43:45;;;;;;;25.92;13.90;;;;;;;;;;5006165;28;20227;-65
2023/04/16 13:46:11;;;;;;;23.70;13.90;;;;;;;;;;5003136;28;20220;-65
2023/04/16 13:48:36;;;;;;;21.80;13.18;;;;;;;;;;4987010;28;20248;-65
2023/04/16 13:51:02;;;;;;;24.95;13.90;;;;;;;;;;4980356;28;20275;-64
2023/04/16 13:53:27;;;;;;;24.10;13.40;;;;;;;;;;4972807;28;20314;-65
2023/04/16 13:55:52;;;;;;;24.30;13.73;;;;;;;;;;4984436;28;20208;-65
2023/04/16 13:58:18;;;;;;;26.05;13.77;;;;;;;;;;4983935;28;20228;-65
2023/04/16 14:00:43;;;;;;;23.00;13.90;;;;;;;;;;4986526;28;20279;-65
2023/04/16 14:03:09;;;;;;;24.60;13.50;;;;;;;;;;4986757;28;20232;-65
2023/04/16 14:05:34;;;;;;;24.75;13.43;;;;;;;;;;4985965;28;20231;-65
2023/04/16 14:08:00;;;;;;;20.58;13.13;;;;;;;;;;4987021;28;20217;-65
2023/04/16 14:10:25;;;;;;;28.73;13.45;;;;;;;;;;4986017;28;20229;-65